Terminal Aerodrome Forecast
Issued by NWS Louisville, KY

Home | Current Version | Previous Version | Text Only | Print | Product List | Glossary On
Versions: 1 2 3 4 5 6 7 8 9 10 11 12 13 14 15 16 17 18 19 20 21 22 23 24 25 26 27 28 29 30 31 32
000
FTUS43 KLMK 261726
TAFSDF
TAF
KSDF 261726Z 2618/2724 24010G18KT P6SM SCT040 BKN250
     FM262100 24009KT P6SM VCTS BKN040CB
     FM270000 27020G33KT 4SM -TSRA BR BKN030CB
     FM270200 VRB06KT P6SM BKN035
     FM271400 20007KT 6SM -SHRA VCTS SCT025CB BKN100=

USA.gov is the U.S. government's official web portal to all federal, state and local government web resources and services.